createdAt,value
2019-06-10T00:01:51.379Z,16.37
2019-06-10T00:04:22.078Z,18.15
2019-06-10T00:06:50.943Z,18.75
2019-06-10T00:09:31.195Z,17.35
2019-06-10T00:12:04.390Z,16.80
2019-06-10T00:14:37.043Z,17.07
2019-06-10T00:17:07.611Z,17.95
2019-06-10T00:19:44.612Z,17.80
2019-06-10T00:22:15.380Z,18.42
2019-06-10T00:24:55.410Z,17.30
2019-06-10T00:27:44.202Z,17.15
2019-06-10T00:30:15.237Z,21.35
2019-06-10T00:32:51.491Z,18.37
2019-06-10T00:35:21.108Z,18.67
2019-06-10T00:37:56.393Z,17.60
2019-06-10T00:40:22.119Z,23.22
2019-06-10T00:42:51.467Z,21.65
2019-06-10T00:45:21.945Z,17.70
2019-06-10T00:47:52.058Z,17.50
2019-06-10T00:50:23.172Z,17.75
2019-06-10T00:52:53.756Z,16.70
2019-06-10T00:55:21.975Z,17.50
2019-06-10T00:57:52.109Z,16.97
2019-06-10T01:00:25.988Z,17.98
2019-06-10T01:02:55.394Z,17.42
2019-06-10T01:05:25.650Z,17.70
2019-06-10T01:07:57.961Z,16.70
2019-06-10T01:10:31.541Z,18.00
2019-06-10T01:13:00.918Z,17.02
2019-06-10T01:15:31.108Z,16.30
2019-06-10T01:18:21.062Z,18.00
2019-06-10T01:20:41.312Z,16.25
2019-06-10T01:23:13.577Z,16.35
2019-06-10T01:25:42.353Z,16.00
2019-06-10T01:28:18.554Z,16.70
2019-06-10T01:31:01.877Z,18.10
2019-06-10T01:33:35.579Z,18.37
2019-06-10T01:36:07.661Z,16.80
2019-06-10T01:38:38.157Z,18.05
2019-06-10T01:41:06.111Z,17.17
2019-06-10T01:43:36.372Z,18.20
2019-06-10T01:46:06.624Z,17.35
2019-06-10T01:48:47.230Z,17.62
2019-06-10T01:51:18.372Z,17.57
2019-06-10T01:53:47.839Z,17.73
2019-06-10T01:56:17.018Z,17.30
2019-06-10T01:58:46.618Z,16.42
2019-06-10T02:01:23.680Z,17.73
2019-06-10T02:03:51.937Z,17.32
2019-06-10T02:06:25.306Z,17.57
2019-06-10T02:08:54.159Z,16.90
2019-06-10T02:11:23.517Z,16.10
2019-06-10T02:13:51.714Z,18.75
2019-06-10T02:16:24.088Z,16.15
2019-06-10T02:19:00.567Z,16.10
2019-06-10T02:21:24.593Z,16.80
2019-06-10T02:23:54.641Z,17.05
2019-06-10T02:26:23.716Z,16.10
2019-06-10T02:28:52.328Z,17.55
2019-06-10T02:31:30.017Z,19.55
2019-06-10T02:33:52.324Z,16.87
2019-06-10T02:36:28.073Z,17.17
2019-06-10T02:38:53.710Z,19.60
2019-06-10T02:41:31.326Z,16.50
2019-06-10T02:43:54.313Z,16.10
2019-06-10T02:46:30.773Z,16.82
2019-06-10T02:49:16.420Z,16.90
2019-06-10T02:51:30.815Z,17.82
2019-06-10T02:53:58.098Z,17.50
2019-06-10T02:56:30.681Z,17.48
2019-06-10T02:58:56.843Z,17.07
2019-06-10T03:01:31.892Z,17.35
2019-06-10T03:03:58.644Z,18.67
2019-06-10T03:06:35.099Z,18.23
2019-06-10T03:08:56.231Z,17.52
2019-06-10T03:11:33.481Z,17.90
2019-06-10T03:14:02.479Z,18.25
2019-06-10T03:16:48.683Z,17.02
2019-06-10T03:19:33.234Z,19.17
2019-06-10T03:21:47.115Z,17.25
2019-06-10T03:24:16.999Z,18.02
2019-06-10T03:26:45.051Z,16.75
2019-06-10T03:29:13.130Z,17.77
2019-06-10T03:31:47.205Z,16.60
2019-06-10T03:34:14.662Z,16.30
2019-06-10T03:36:42.955Z,19.02
2019-06-10T03:39:14.665Z,21.82
2019-06-10T03:41:52.910Z,16.97
2019-06-10T03:44:23.960Z,16.93
2019-06-10T03:46:52.640Z,17.30
2019-06-10T03:49:21.877Z,17.45
2019-06-10T03:51:52.979Z,17.30
2019-06-10T03:54:24.436Z,16.75
2019-06-10T03:56:52.069Z,16.40
2019-06-10T03:59:21.730Z,18.27
2019-06-10T04:01:52.752Z,17.57
2019-06-10T04:04:24.059Z,18.92
2019-06-10T04:06:53.173Z,19.00
2019-06-10T04:09:23.625Z,16.65
2019-06-10T04:11:53.399Z,16.32
2019-06-10T04:14:32.707Z,15.85
2019-06-10T04:17:02.783Z,16.75
2019-06-10T04:19:48.499Z,25.80
2019-06-10T04:22:19.602Z,17.05
2019-06-10T04:24:51.941Z,17.23
2019-06-10T04:27:22.727Z,16.65
2019-06-10T04:29:52.382Z,16.60
2019-06-10T04:32:23.131Z,16.65
2019-06-10T04:34:52.983Z,16.50
2019-06-10T04:37:27.499Z,17.30
2019-06-10T04:39:57.602Z,16.62
2019-06-10T04:42:29.752Z,17.52
2019-06-10T04:44:59.094Z,16.52
2019-06-10T04:47:28.327Z,16.70
2019-06-10T04:49:58.946Z,16.32
2019-06-10T04:52:32.908Z,16.30
2019-06-10T04:55:08.979Z,18.92
2019-06-10T04:57:37.165Z,17.07
2019-06-10T05:00:12.022Z,17.00
2019-06-10T05:02:39.798Z,16.87
2019-06-10T05:05:08.366Z,16.50
2019-06-10T05:07:37.193Z,18.05
2019-06-10T05:10:07.263Z,17.00
2019-06-10T05:12:35.153Z,19.95
2019-06-10T05:15:04.853Z,17.45
2019-06-10T05:17:34.361Z,16.65
2019-06-10T05:20:02.671Z,16.80
2019-06-10T05:22:32.748Z,18.00
2019-06-10T05:25:02.485Z,16.27
2019-06-10T05:27:30.842Z,18.65
2019-06-10T05:30:02.087Z,18.90
2019-06-10T05:32:29.096Z,17.15
2019-06-10T05:34:56.986Z,18.37
2019-06-10T05:37:26.429Z,17.48
2019-06-10T05:39:54.348Z,16.90
2019-06-10T05:42:24.445Z,17.45
2019-06-10T05:44:52.456Z,17.45
2019-06-10T05:47:23.352Z,18.37
2019-06-10T05:49:50.139Z,19.85
2019-06-10T05:52:18.045Z,17.50
2019-06-10T05:54:45.877Z,17.23
2019-06-10T05:57:13.766Z,16.80
2019-06-10T05:59:43.261Z,19.40
2019-06-10T06:02:12.853Z,17.40
2019-06-10T06:04:42.851Z,17.73
2019-06-10T06:07:12.754Z,17.15
2019-06-10T06:09:39.955Z,17.60
2019-06-10T06:12:10.964Z,18.77
2019-06-10T06:14:37.781Z,18.10
2019-06-10T06:17:05.723Z,17.42
2019-06-10T06:19:36.920Z,18.00
2019-06-10T06:22:03.122Z,16.85
2019-06-10T06:24:33.885Z,16.73
2019-06-10T06:27:02.519Z,16.77
2019-06-10T06:29:31.493Z,18.70
2019-06-10T06:31:59.806Z,17.50
2019-06-10T06:34:28.428Z,16.93
2019-06-10T06:36:56.383Z,17.50
2019-06-10T06:39:24.403Z,17.07
2019-06-10T06:41:52.856Z,16.80
2019-06-10T06:44:23.184Z,18.35
2019-06-10T06:46:50.428Z,18.30
2019-06-10T06:49:18.302Z,17.57
2019-06-10T06:51:54.574Z,19.20
2019-06-10T06:54:15.745Z,19.27
2019-06-10T06:56:43.933Z,16.52
2019-06-10T06:59:13.139Z,19.40
2019-06-10T07:01:44.050Z,19.00
2019-06-10T07:04:12.993Z,17.40
2019-06-10T07:06:43.006Z,20.45
2019-06-10T07:09:10.226Z,18.17
2019-06-10T07:11:39.886Z,19.02
2019-06-10T07:14:10.144Z,17.40
2019-06-10T07:16:39.156Z,19.37
2019-06-10T07:19:06.997Z,17.57
2019-06-10T07:21:55.768Z,17.73
2019-06-10T07:24:04.902Z,20.72
2019-06-10T07:26:35.742Z,18.50
2019-06-10T07:29:02.911Z,18.47
2019-06-10T07:31:33.584Z,20.07
2019-06-10T07:34:02.633Z,18.70
2019-06-10T07:36:32.499Z,21.50
2019-06-10T07:38:59.671Z,19.97
2019-06-10T07:41:27.573Z,19.00
2019-06-10T07:43:55.380Z,19.37
2019-06-10T07:46:23.291Z,19.57
2019-06-10T07:48:56.091Z,23.30
2019-06-10T07:51:22.613Z,19.90
2019-06-10T07:53:52.612Z,23.77
2019-06-10T07:56:20.025Z,21.57
2019-06-10T07:58:47.880Z,19.97
2019-06-10T08:01:15.691Z,18.80
2019-06-10T08:03:46.406Z,19.30
2019-06-10T08:06:13.082Z,19.63
2019-06-10T08:08:44.776Z,21.97
2019-06-10T08:11:13.398Z,19.00
2019-06-10T08:13:42.913Z,18.47
2019-06-10T08:16:09.737Z,19.57
2019-06-10T08:18:49.912Z,26.80
2019-06-10T08:21:07.123Z,19.83
2019-06-10T08:23:36.898Z,19.90
2019-06-10T08:26:04.593Z,20.37
2019-06-10T08:28:33.236Z,18.07
2019-06-10T08:31:03.612Z,20.37
2019-06-10T08:33:33.076Z,20.83
2019-06-10T08:36:03.627Z,18.10
2019-06-10T08:38:32.698Z,18.87
2019-06-10T08:40:59.574Z,19.13
2019-06-10T08:43:27.723Z,18.67
2019-06-10T08:45:55.520Z,18.93
2019-06-10T08:48:23.394Z,19.20
2019-06-10T08:50:53.019Z,20.80
2019-06-10T08:53:22.721Z,19.60
2019-06-10T08:55:53.414Z,19.00
2019-06-10T08:58:22.382Z,17.70
2019-06-10T09:00:49.632Z,18.90
2019-06-10T09:03:17.475Z,19.10
2019-06-10T09:05:49.003Z,18.80
2019-06-10T09:08:14.886Z,19.30
2019-06-10T09:10:47.391Z,19.07
2019-06-10T09:13:13.410Z,18.57
2019-06-10T09:15:44.661Z,18.00
2019-06-10T09:18:13.980Z,19.73
2019-06-10T09:20:44.450Z,18.50
2019-06-10T09:23:21.499Z,19.20
2019-06-10T09:25:41.528Z,22.07
2019-06-10T09:28:09.502Z,18.90
2019-06-10T09:30:37.298Z,19.70
2019-06-10T09:33:05.194Z,20.67
2019-06-10T09:35:33.051Z,18.60
2019-06-10T09:38:03.519Z,18.70
2019-06-10T09:40:48.048Z,17.67
2019-06-10T09:43:14.247Z,19.73
2019-06-10T09:45:45.932Z,18.53
2019-06-10T09:48:13.283Z,19.80
2019-06-10T09:50:48.814Z,19.23
2019-06-10T09:53:28.969Z,18.37
2019-06-10T09:55:46.053Z,18.87
2019-06-10T09:58:12.652Z,18.73
2019-06-10T10:00:49.281Z,19.30
2019-06-10T10:03:16.640Z,19.27
2019-06-10T10:05:55.910Z,19.87
2019-06-10T10:08:14.277Z,18.93
2019-06-10T10:10:49.469Z,18.70
2019-06-10T10:13:14.693Z,18.87
2019-06-10T10:15:43.569Z,20.40
2019-06-10T10:18:33.616Z,20.00
2019-06-10T10:21:03.878Z,18.50
2019-06-10T10:23:49.059Z,20.73
2019-06-10T10:26:06.879Z,20.07
2019-06-10T10:28:42.793Z,18.17
2019-06-10T10:31:20.077Z,18.10
2019-06-10T10:33:48.412Z,18.07
2019-06-10T10:36:17.979Z,22.73
2019-06-10T10:38:48.781Z,17.77
2019-06-10T10:41:16.843Z,18.10
2019-06-10T10:43:51.164Z,20.90
2019-06-10T10:46:18.229Z,19.97
2019-06-10T10:48:47.096Z,19.30
2019-06-10T10:51:16.402Z,19.03
2019-06-10T10:53:50.556Z,19.50
2019-06-10T10:56:16.757Z,18.63
2019-06-10T10:58:47.353Z,21.67
2019-06-10T11:01:17.399Z,18.97
2019-06-10T11:03:48.234Z,18.53
2019-06-10T11:06:25.123Z,19.73
2019-06-10T11:08:57.111Z,17.83
2019-06-10T11:11:33.150Z,18.30
2019-06-10T11:14:05.263Z,18.50
2019-06-10T11:16:34.899Z,18.17
2019-06-10T11:19:03.179Z,17.70
2019-06-10T11:21:33.065Z,17.57
2019-06-10T11:24:04.660Z,18.00
2019-06-10T11:26:32.990Z,17.73
2019-06-10T11:29:06.517Z,17.80
2019-06-10T11:31:35.071Z,19.13
2019-06-10T11:34:05.727Z,18.20
2019-06-10T11:36:33.734Z,18.10
2019-06-10T11:39:07.092Z,17.83
2019-06-10T11:41:35.166Z,17.53
2019-06-10T11:44:03.943Z,19.50
2019-06-10T11:46:33.475Z,17.43
2019-06-10T11:49:03.861Z,18.20
2019-06-10T11:51:41.095Z,17.20
2019-06-10T11:54:17.182Z,17.30
2019-06-10T11:56:48.379Z,19.20
2019-06-10T11:59:16.454Z,17.80
2019-06-10T12:01:45.152Z,18.90
2019-06-10T12:04:13.690Z,18.20
2019-06-10T12:06:43.356Z,18.07
2019-06-10T12:09:13.792Z,18.90
2019-06-10T12:11:47.085Z,19.90
2019-06-10T12:14:15.903Z,17.97
2019-06-10T12:17:17.574Z,18.60
2019-06-10T12:19:13.512Z,18.27
2019-06-10T12:21:43.408Z,17.73
2019-06-10T12:24:12.687Z,19.43
2019-06-10T12:26:43.233Z,18.00
2019-06-10T12:29:12.429Z,20.60
2019-06-10T12:31:42.588Z,17.90
2019-06-10T12:34:09.485Z,19.20
2019-06-10T12:36:37.346Z,17.60
2019-06-10T12:39:10.678Z,17.17
2019-06-10T12:41:36.936Z,18.00
2019-06-10T12:44:04.939Z,18.40
2019-06-10T12:46:32.892Z,17.30
2019-06-10T12:49:04.019Z,17.00
2019-06-10T12:51:32.298Z,18.30
2019-06-10T12:54:03.062Z,19.37
2019-06-10T12:56:29.450Z,17.67
2019-06-10T12:58:58.048Z,18.97
2019-06-10T13:01:26.910Z,20.07
2019-06-10T13:03:55.572Z,20.17
2019-06-10T13:06:24.344Z,18.37
2019-06-10T13:08:53.285Z,19.50
2019-06-10T13:11:23.386Z,19.70
2019-06-10T13:13:52.925Z,17.60
2019-06-10T13:16:20.386Z,18.10
2019-06-10T13:18:48.366Z,19.80
2019-06-10T13:21:17.764Z,17.00
2019-06-10T13:23:46.103Z,16.90
2019-06-10T13:26:16.597Z,18.73
2019-06-10T13:28:44.561Z,17.90
2019-06-10T13:31:13.945Z,18.30
2019-06-10T13:33:42.890Z,16.80
2019-06-10T13:36:11.294Z,19.60
2019-06-10T13:38:39.123Z,17.17
2019-06-10T13:41:07.791Z,17.87
2019-06-10T13:43:35.834Z,19.33
2019-06-10T13:46:06.986Z,18.67
2019-06-10T13:48:33.296Z,19.20
2019-06-10T13:51:04.743Z,17.43
2019-06-10T13:53:30.891Z,18.10
2019-06-10T13:56:19.921Z,18.50
2019-06-10T13:58:28.347Z,17.43
2019-06-10T14:00:56.171Z,17.87
2019-06-10T14:03:24.040Z,18.30
2019-06-10T14:05:57.797Z,19.70
2019-06-10T14:08:23.320Z,18.80
2019-06-10T14:10:54.122Z,17.33
2019-06-10T14:13:23.492Z,18.37
2019-06-10T14:15:53.415Z,18.90
2019-06-10T14:18:22.895Z,20.70
2019-06-10T14:20:52.784Z,18.20
2019-06-10T14:23:21.820Z,18.07
2019-06-10T14:25:49.328Z,18.10
2019-06-10T14:28:35.834Z,17.87
2019-06-10T14:30:46.775Z,19.67
2019-06-10T14:33:16.643Z,17.43
2019-06-10T14:35:44.268Z,21.83
2019-06-10T17:03:58.701Z,18.47
2019-06-10T17:06:30.061Z,19.57
2019-06-10T17:08:58.162Z,19.00
2019-06-10T17:11:34.451Z,18.50
2019-06-10T17:14:04.039Z,18.80
2019-06-10T17:16:34.574Z,17.97
2019-06-10T17:19:08.210Z,17.97
2019-06-10T17:21:58.777Z,17.97
2019-06-10T17:24:31.503Z,17.67
2019-06-10T17:27:02.691Z,19.37
2019-06-10T17:29:42.670Z,18.23
2019-06-10T17:32:18.001Z,21.80
2019-06-10T17:34:52.638Z,21.90
2019-06-10T17:37:18.277Z,19.47
2019-06-10T17:40:07.886Z,19.80
2019-06-10T17:42:42.836Z,18.90
2019-06-10T17:46:21.757Z,19.23
2019-06-10T17:48:03.718Z,21.00
2019-06-10T17:50:43.694Z,19.67
2019-06-10T17:53:32.969Z,19.43
2019-06-10T17:56:15.409Z,20.20
2019-06-10T17:58:59.457Z,21.27
2019-06-10T18:01:40.525Z,22.80
2019-06-10T18:04:36.141Z,20.57
2019-06-10T18:07:07.708Z,19.13
2019-06-10T18:09:37.149Z,20.17
2019-06-10T18:12:13.789Z,20.07
2019-06-10T18:14:59.635Z,17.83
2019-06-10T18:17:55.763Z,19.13
2019-06-10T18:20:24.411Z,21.93
2019-06-10T18:22:58.525Z,19.20
2019-06-10T18:25:28.638Z,21.63
2019-06-10T18:27:59.040Z,19.43
2019-06-10T18:30:27.347Z,21.48
2019-06-10T18:33:02.734Z,20.50
2019-06-10T18:35:37.590Z,22.37
2019-06-10T18:38:02.202Z,19.30
2019-06-10T18:40:31.498Z,20.10
2019-06-10T18:43:02.743Z,19.70
2019-06-10T18:45:33.316Z,19.23
2019-06-10T18:48:02.827Z,20.23
2019-06-10T18:50:36.171Z,18.20
2019-06-10T18:53:04.890Z,19.30
2019-06-10T18:55:37.692Z,17.70
2019-06-10T19:01:00.838Z,19.70
2019-06-10T19:03:43.352Z,19.10
2019-06-10T19:06:12.499Z,19.10
2019-06-10T19:08:44.655Z,18.90
2019-06-10T19:11:12.645Z,20.73
2019-06-10T19:13:43.717Z,19.37
2019-06-10T19:16:12.901Z,21.33
2019-06-10T19:18:43.974Z,19.20
2019-06-10T19:21:13.475Z,19.60
2019-06-10T19:23:44.551Z,19.17
2019-06-10T19:26:21.982Z,19.47
2019-06-10T19:28:53.211Z,20.63
2019-06-10T19:31:23.126Z,21.33
2019-06-10T19:33:55.739Z,19.10
2019-06-10T19:36:26.132Z,19.93
2019-06-10T19:38:54.907Z,19.90
2019-06-10T19:41:22.972Z,19.37
2019-06-10T19:43:52.869Z,21.47
2019-06-10T19:46:23.465Z,20.53
2019-06-10T19:49:01.704Z,18.90
2019-06-10T19:51:29.397Z,21.17
2019-06-10T19:53:59.923Z,19.40
2019-06-10T19:56:28.601Z,18.60
2019-06-10T19:58:57.740Z,19.80
2019-06-10T20:01:29.618Z,22.00
2019-06-10T20:04:02.490Z,21.17
2019-06-10T20:06:32.176Z,21.55
2019-06-10T20:08:59.965Z,21.25
2019-06-10T20:11:32.206Z,20.20
2019-06-10T20:14:02.548Z,22.57
2019-06-10T20:16:33.111Z,22.05
2019-06-10T20:19:04.615Z,22.10
2019-06-10T20:21:33.036Z,21.55
2019-06-10T20:24:02.936Z,20.02
2019-06-10T20:26:32.972Z,21.10
2019-06-10T20:29:03.620Z,22.22
2019-06-10T20:31:32.514Z,20.80
2019-06-10T20:34:02.623Z,20.77
2019-06-10T20:36:33.222Z,21.93
2019-06-10T20:39:05.985Z,20.57
2019-06-10T20:41:36.993Z,24.80
2019-06-10T20:44:07.101Z,21.67
2019-06-10T20:46:55.206Z,21.25
2019-06-10T20:49:29.684Z,21.55
2019-06-10T20:52:10.451Z,22.00
2019-06-10T20:55:15.305Z,22.10
2019-06-10T20:57:58.984Z,24.00
2019-06-10T21:00:26.326Z,22.32
2019-06-10T21:02:57.557Z,22.85
2019-06-10T21:05:48.057Z,23.83
2019-06-10T21:11:05.208Z,23.00
2019-06-10T21:14:16.363Z,23.07
2019-06-10T21:16:44.345Z,24.85
2019-06-10T21:19:13.546Z,22.80
2019-06-10T21:21:45.624Z,25.10
2019-06-10T21:24:16.244Z,27.22
2019-06-10T21:26:48.241Z,26.65
2019-06-10T21:29:34.589Z,25.05
2019-06-10T21:32:03.680Z,24.95
2019-06-10T21:34:32.733Z,24.25
2019-06-10T21:37:04.787Z,23.80
2019-06-10T21:39:32.749Z,24.12
2019-06-10T21:42:02.318Z,24.43
2019-06-10T21:44:32.420Z,23.95
2019-06-10T21:47:02.489Z,24.00
2019-06-10T21:49:32.236Z,24.55
2019-06-10T21:52:00.096Z,25.02
2019-06-10T21:54:28.043Z,23.62
2019-06-10T21:56:58.425Z,26.23
2019-06-10T21:59:28.438Z,23.55
2019-06-10T22:01:56.955Z,24.05
2019-06-10T22:04:27.025Z,24.40
2019-06-10T22:06:56.339Z,25.85
2019-06-10T22:09:26.241Z,23.40
2019-06-10T22:11:55.919Z,23.83
2019-06-10T22:14:26.004Z,21.37
2019-06-10T22:16:56.245Z,21.48
2019-06-10T22:19:25.861Z,21.57
2019-06-10T22:21:56.770Z,21.62
2019-06-10T22:24:27.336Z,21.80
2019-06-10T22:26:58.270Z,23.12
2019-06-10T22:29:26.478Z,23.00
2019-06-10T22:31:56.989Z,22.15
2019-06-10T22:34:32.913Z,21.52
2019-06-10T22:37:03.363Z,21.30
2019-06-10T22:39:32.567Z,22.62
2019-06-10T22:42:03.027Z,22.17
2019-06-10T22:44:33.085Z,20.27
2019-06-10T22:47:04.041Z,21.48
2019-06-10T22:49:33.234Z,24.32
2019-06-10T22:52:08.260Z,22.37
2019-06-10T22:54:43.075Z,21.73
2019-06-10T22:57:09.313Z,22.80
2019-06-10T22:59:42.403Z,23.00
2019-06-10T23:02:09.585Z,23.57
2019-06-10T23:04:37.766Z,26.93
2019-06-10T23:07:05.729Z,28.45
2019-06-10T23:09:56.343Z,28.40
2019-06-10T23:12:24.984Z,28.47
2019-06-10T23:15:13.020Z,29.98
2019-06-10T23:17:42.450Z,31.25
2019-06-10T23:20:12.475Z,31.48
2019-06-10T23:22:41.698Z,30.90
2019-06-10T23:25:13.886Z,32.60
2019-06-10T23:27:44.317Z,33.75
2019-06-10T23:30:12.098Z,32.67
2019-06-10T23:32:42.271Z,32.67
2019-06-10T23:35:12.486Z,35.00
2019-06-10T23:37:42.728Z,29.80
2019-06-10T23:40:12.671Z,31.00
2019-06-10T23:42:44.705Z,32.45
2019-06-10T23:45:13.192Z,32.93
2019-06-10T23:47:46.715Z,32.63
2019-06-10T23:50:17.088Z,31.90
2019-06-10T23:52:47.095Z,32.85
2019-06-10T23:55:15.547Z,33.83
2019-06-10T23:57:46.424Z,35.25
